sensor_id;sensor_type;location;lat;lon;timestamp;pressure;altitude;pressure_sealevel;temperature
78859;BMP280;68210;52.032;4.634;2024-02-26T00:00:42;99748.34;;;6.58
78859;BMP280;68210;52.032;4.634;2024-02-26T00:02:42;99728.53;;;6.66
78859;BMP280;68210;52.032;4.634;2024-02-26T00:04:43;99745.72;;;6.62
78859;BMP280;68210;52.032;4.634;2024-02-26T00:06:43;99730.00;;;6.64
78859;BMP280;68210;52.032;4.634;2024-02-26T00:08:44;99727.03;;;6.68
78859;BMP280;68210;52.032;4.634;2024-02-26T00:10:44;99731.72;;;6.71
78859;BMP280;68210;52.032;4.634;2024-02-26T00:12:44;99730.19;;;6.70
78859;BMP280;68210;52.032;4.634;2024-02-26T00:14:45;99739.38;;;6.69
78859;BMP280;68210;52.032;4.634;2024-02-26T00:16:47;99747.03;;;6.67
78859;BMP280;68210;52.032;4.634;2024-02-26T00:18:47;99736.16;;;6.64
78859;BMP280;68210;52.032;4.634;2024-02-26T00:20:47;99737.75;;;6.65
78859;BMP280;68210;52.032;4.634;2024-02-26T00:22:48;99763.47;;;6.63
78859;BMP280;68210;52.032;4.634;2024-02-26T00:24:48;99741.66;;;6.67
78859;BMP280;68210;52.032;4.634;2024-02-26T00:26:48;99739.91;;;6.60
78859;BMP280;68210;52.032;4.634;2024-02-26T00:28:53;99750.78;;;6.63
78859;BMP280;68210;52.032;4.634;2024-02-26T00:30:53;99733.13;;;6.66
78859;BMP280;68210;52.032;4.634;2024-02-26T00:32:56;99736.97;;;6.65
78859;BMP280;68210;52.032;4.634;2024-02-26T00:34:56;99743.47;;;6.64
78859;BMP280;68210;52.032;4.634;2024-02-26T00:36:56;99739.66;;;6.65
78859;BMP280;68210;52.032;4.634;2024-02-26T00:39:00;99752.31;;;6.64
78859;BMP280;68210;52.032;4.634;2024-02-26T00:41:00;99742.00;;;6.66
78859;BMP280;68210;52.032;4.634;2024-02-26T00:43:00;99746.16;;;6.64
78859;BMP280;68210;52.032;4.634;2024-02-26T00:45:02;99749.28;;;6.66
78859;BMP280;68210;52.032;4.634;2024-02-26T00:47:03;99747.75;;;6.65
78859;BMP280;68210;52.032;4.634;2024-02-26T00:49:03;99738.78;;;6.61
78859;BMP280;68210;52.032;4.634;2024-02-26T00:51:04;99741.13;;;6.62
78859;BMP280;68210;52.032;4.634;2024-02-26T00:53:08;99729.03;;;6.71
78859;BMP280;68210;52.032;4.634;2024-02-26T00:55:09;99759.19;;;6.62
78859;BMP280;68210;52.032;4.634;2024-02-26T00:57:09;99740.19;;;6.55
78859;BMP280;68210;52.032;4.634;2024-02-26T00:59:10;99743.38;;;6.60
78859;BMP280;68210;52.032;4.634;2024-02-26T01:01:10;99746.16;;;6.64
78859;BMP280;68210;52.032;4.634;2024-02-26T01:03:10;99741.56;;;6.64
78859;BMP280;68210;52.032;4.634;2024-02-26T01:05:11;99737.22;;;6.60
78859;BMP280;68210;52.032;4.634;2024-02-26T01:07:11;99752.25;;;6.61
78859;BMP280;68210;52.032;4.634;2024-02-26T01:09:11;99741.22;;;6.66
78859;BMP280;68210;52.032;4.634;2024-02-26T01:11:12;99755.53;;;6.69
78859;BMP280;68210;52.032;4.634;2024-02-26T01:13:12;99756.59;;;6.65
78859;BMP280;68210;52.032;4.634;2024-02-26T01:15:12;99754.59;;;6.62
78859;BMP280;68210;52.032;4.634;2024-02-26T01:17:13;99746.84;;;6.61
78859;BMP280;68210;52.032;4.634;2024-02-26T01:19:13;99752.44;;;6.67
78859;BMP280;68210;52.032;4.634;2024-02-26T01:21:14;99743.22;;;6.68
78859;BMP280;68210;52.032;4.634;2024-02-26T01:23:14;99737.81;;;6.68
78859;BMP280;68210;52.032;4.634;2024-02-26T01:25:15;99730.19;;;6.70
78859;BMP280;68210;52.032;4.634;2024-02-26T01:27:16;99749.44;;;6.72
78859;BMP280;68210;52.032;4.634;2024-02-26T01:29:16;99736.16;;;6.64
78859;BMP280;68210;52.032;4.634;2024-02-26T01:31:16;99750.84;;;6.66
78859;BMP280;68210;52.032;4.634;2024-02-26T01:33:17;99740.94;;;6.70
78859;BMP280;68210;52.032;4.634;2024-02-26T01:35:17;99743.47;;;6.64
78859;BMP280;68210;52.032;4.634;2024-02-26T01:37:19;99747.13;;;6.71
78859;BMP280;68210;52.032;4.634;2024-02-26T01:39:20;99744.75;;;6.69
78859;BMP280;68210;52.032;4.634;2024-02-26T01:41:20;99730.53;;;6.69
78859;BMP280;68210;52.032;4.634;2024-02-26T01:43:22;99729.66;;;6.65
78859;BMP280;68210;52.032;4.634;2024-02-26T01:45:22;99745.47;;;6.66
78859;BMP280;68210;52.032;4.634;2024-02-26T01:47:25;99736.97;;;6.65
78859;BMP280;68210;52.032;4.634;2024-02-26T01:49:26;99746.94;;;6.64
78859;BMP280;68210;52.032;4.634;2024-02-26T01:51:26;99737.38;;;6.66
78859;BMP280;68210;52.032;4.634;2024-02-26T01:53:27;99760.13;;;6.69
78859;BMP280;68210;52.032;4.634;2024-02-26T01:55:27;99748.78;;;6.75
78859;BMP280;68210;52.032;4.634;2024-02-26T01:57:28;99754.81;;;6.72
78859;BMP280;68210;52.032;4.634;2024-02-26T01:59:28;99775.97;;;6.70
78859;BMP280;68210;52.032;4.634;2024-02-26T02:01:30;99747.88;;;6.71
78859;BMP280;68210;52.032;4.634;2024-02-26T02:03:31;99777.94;;;6.73
78859;BMP280;68210;52.032;4.634;2024-02-26T02:05:33;99767.19;;;6.73
78859;BMP280;68210;52.032;4.634;2024-02-26T02:07:34;99771.69;;;6.69
78859;BMP280;68210;52.032;4.634;2024-02-26T02:09:36;99777.78;;;6.66
78859;BMP280;68210;52.032;4.634;2024-02-26T02:11:36;99770.97;;;6.72
78859;BMP280;68210;52.032;4.634;2024-02-26T02:13:37;99777.94;;;6.73
78859;BMP280;68210;52.032;4.634;2024-02-26T02:15:38;99778.22;;;6.68
78859;BMP280;68210;52.032;4.634;2024-02-26T02:17:38;99771.34;;;6.71
78859;BMP280;68210;52.032;4.634;2024-02-26T02:19:38;99775.97;;;6.70
78859;BMP280;68210;52.032;4.634;2024-02-26T02:21:39;99783.34;;;6.73
78859;BMP280;68210;52.032;4.634;2024-02-26T02:23:40;99777.06;;;6.69
78859;BMP280;68210;52.032;4.634;2024-02-26T02:25:46;99778.66;;;6.70
78859;BMP280;68210;52.032;4.634;2024-02-26T02:27:46;99780.06;;;6.65
78859;BMP280;68210;52.032;4.634;2024-02-26T02:29:47;99784.38;;;6.69
78859;BMP280;68210;52.032;4.634;2024-02-26T02:31:48;99776.22;;;6.66
78859;BMP280;68210;52.032;4.634;2024-02-26T02:33:49;99784.03;;;6.70
78859;BMP280;68210;52.032;4.634;2024-02-26T02:35:49;99781.59;;;6.66
78859;BMP280;68210;52.032;4.634;2024-02-26T02:37:52;99795.59;;;6.71
78859;BMP280;68210;52.032;4.634;2024-02-26T02:39:54;99794.88;;;6.74
78859;BMP280;68210;52.032;4.634;2024-02-26T02:41:55;99779.34;;;6.67
78859;BMP280;68210;52.032;4.634;2024-02-26T02:43:55;99786.28;;;6.68
78859;BMP280;68210;52.032;4.634;2024-02-26T02:45:55;99781.25;;;6.67
78859;BMP280;68210;52.032;4.634;2024-02-26T02:47:56;99797.25;;;6.75
78859;BMP280;68210;52.032;4.634;2024-02-26T02:49:56;99790.13;;;6.67
78859;BMP280;68210;52.032;4.634;2024-02-26T02:51:56;99793.34;;;6.73
78859;BMP280;68210;52.032;4.634;2024-02-26T02:53:57;99800.91;;;6.67
78859;BMP280;68210;52.032;4.634;2024-02-26T02:55:58;99805.47;;;6.67
78859;BMP280;68210;52.032;4.634;2024-02-26T02:57:58;99813.13;;;6.65
78859;BMP280;68210;52.032;4.634;2024-02-26T02:59:58;99823.91;;;6.65
78859;BMP280;68210;52.032;4.634;2024-02-26T03:01:59;99811.22;;;6.66
78859;BMP280;68210;52.032;4.634;2024-02-26T03:03:59;99821.91;;;6.62
78859;BMP280;68210;52.032;4.634;2024-02-26T03:05:59;99830.06;;;6.66
78859;BMP280;68210;52.032;4.634;2024-02-26T03:08:00;99829.72;;;6.67
78859;BMP280;68210;52.032;4.634;2024-02-26T03:10:00;99820.00;;;6.63
78859;BMP280;68210;52.032;4.634;2024-02-26T03:12:00;99818.84;;;6.64
78859;BMP280;68210;52.032;4.634;2024-02-26T03:14:01;99821.53;;;6.64
78859;BMP280;68210;52.032;4.634;2024-02-26T03:16:05;99826.69;;;6.68
78859;BMP280;68210;52.032;4.634;2024-02-26T03:18:06;99815.47;;;6.66
78859;BMP280;68210;52.032;4.634;2024-02-26T03:20:07;99822.16;;;6.57
78859;BMP280;68210;52.032;4.634;2024-02-26T03:22:08;99825.31;;;6.59
78859;BMP280;68210;52.032;4.634;2024-02-26T03:24:09;99840.28;;;6.45
78859;BMP280;68210;52.032;4.634;2024-02-26T03:26:11;99828.94;;;6.51
78859;BMP280;68210;52.032;4.634;2024-02-26T03:28:14;99845.88;;;6.52
78859;BMP280;68210;52.032;4.634;2024-02-26T03:30:15;99832.81;;;6.54
78859;BMP280;68210;52.032;4.634;2024-02-26T03:32:16;99842.41;;;6.51
78859;BMP280;68210;52.032;4.634;2024-02-26T03:34:16;99858.69;;;6.43
78859;BMP280;68210;52.032;4.634;2024-02-26T03:36:18;99870.00;;;6.64
78859;BMP280;68210;52.032;4.634;2024-02-26T03:38:19;99863.78;;;6.60
78859;BMP280;68210;52.032;4.634;2024-02-26T03:40:19;99859.81;;;6.42
78859;BMP280;68210;52.032;4.634;2024-02-26T03:42:20;99842.44;;;6.39
78859;BMP280;68210;52.032;4.634;2024-02-26T03:44:20;99855.56;;;6.41
78859;BMP280;68210;52.032;4.634;2024-02-26T03:46:20;99847.91;;;6.43
78859;BMP280;68210;52.032;4.634;2024-02-26T03:48:21;99857.13;;;6.42
78859;BMP280;68210;52.032;4.634;2024-02-26T03:50:21;99862.06;;;6.40
78859;BMP280;68210;52.032;4.634;2024-02-26T03:52:21;99861.66;;;6.38
78859;BMP280;68210;52.032;4.634;2024-02-26T03:54:22;99857.13;;;6.42
78859;BMP280;68210;52.032;4.634;2024-02-26T03:56:22;99850.97;;;6.41
78859;BMP280;68210;52.032;4.634;2024-02-26T03:58:23;99873.72;;;6.44
78859;BMP280;68210;52.032;4.634;2024-02-26T04:00:23;99866.75;;;6.43
78859;BMP280;68210;52.032;4.634;2024-02-26T04:02:25;99867.22;;;6.45
78859;BMP280;68210;52.032;4.634;2024-02-26T04:04:27;99858.03;;;6.46
78859;BMP280;68210;52.032;4.634;2024-02-26T04:06:27;99870.13;;;6.40
78859;BMP280;68210;52.032;4.634;2024-02-26T04:08:27;99858.97;;;6.38
78859;BMP280;68210;52.032;4.634;2024-02-26T04:10:28;99863.97;;;6.39
78859;BMP280;68210;52.032;4.634;2024-02-26T04:12:28;99867.03;;;6.38
78859;BMP280;68210;52.032;4.634;2024-02-26T04:14:28;99858.97;;;6.38
78859;BMP280;68210;52.032;4.634;2024-02-26T04:16:29;99861.03;;;6.44
78859;BMP280;68210;52.032;4.634;2024-02-26T04:18:29;99867.66;;;6.47
78859;BMP280;68210;52.032;4.634;2024-02-26T04:20:30;99862.50;;;6.42
78859;BMP280;68210;52.032;4.634;2024-02-26T04:22:30;99865.72;;;6.47
78859;BMP280;68210;52.032;4.634;2024-02-26T04:24:31;99869.56;;;6.46
78859;BMP280;68210;52.032;4.634;2024-02-26T04:26:31;99881.19;;;6.35
78859;BMP280;68210;52.032;4.634;2024-02-26T04:28:32;99892.47;;;6.40
78859;BMP280;68210;52.032;4.634;2024-02-26T04:30:32;99885.34;;;6.33
78859;BMP280;68210;52.032;4.634;2024-02-26T04:32:32;99881.50;;;6.34
78859;BMP280;68210;52.032;4.634;2024-02-26T04:34:34;99889.13;;;6.32
78859;BMP280;68210;52.032;4.634;2024-02-26T04:36:35;99880.72;;;6.33
78859;BMP280;68210;52.032;4.634;2024-02-26T04:38:35;99881.84;;;6.32
78859;BMP280;68210;52.032;4.634;2024-02-26T04:40:36;99886.81;;;6.30
78859;BMP280;68210;52.032;4.634;2024-02-26T04:42:36;99888.81;;;6.33
78859;BMP280;68210;52.032;4.634;2024-02-26T04:44:36;99877.28;;;6.33
78859;BMP280;68210;52.032;4.634;2024-02-26T04:46:37;99924.47;;;6.30
78859;BMP280;68210;52.032;4.634;2024-02-26T04:48:37;99885.47;;;6.24
78859;BMP280;68210;52.032;4.634;2024-02-26T04:50:38;99873.50;;;6.22
78859;BMP280;68210;52.032;4.634;2024-02-26T04:52:38;99916.56;;;6.22
78859;BMP280;68210;52.032;4.634;2024-02-26T04:54:39;99884.00;;;6.27
78859;BMP280;68210;52.032;4.634;2024-02-26T04:56:39;99894.44;;;6.28
78859;BMP280;68210;52.032;4.634;2024-02-26T04:58:39;99896.69;;;6.26
78859;BMP280;68210;52.032;4.634;2024-02-26T05:00:40;99908.09;;;6.35
78859;BMP280;68210;52.032;4.634;2024-02-26T05:02:40;99894.53;;;6.32
78859;BMP280;68210;52.032;4.634;2024-02-26T05:04:41;99914.03;;;6.29
78859;BMP280;68210;52.032;4.634;2024-02-26T05:06:41;99915.50;;;6.26
78859;BMP280;68210;52.032;4.634;2024-02-26T05:08:41;99914.41;;;6.27
78859;BMP280;68210;52.032;4.634;2024-02-26T05:10:45;99922.81;;;6.26
78859;BMP280;68210;52.032;4.634;2024-02-26T05:12:45;99930.56;;;6.27
78859;BMP280;68210;52.032;4.634;2024-02-26T05:14:46;99910.81;;;6.23
78859;BMP280;68210;52.032;4.634;2024-02-26T05:16:46;99909.50;;;6.17
78859;BMP280;68210;52.032;4.634;2024-02-26T05:18:48;99903.66;;;6.15
78859;BMP280;68210;52.032;4.634;2024-02-26T05:20:48;99902.06;;;6.26
78859;BMP280;68210;52.032;4.634;2024-02-26T05:22:49;99914.97;;;6.21
78859;BMP280;68210;52.032;4.634;2024-02-26T05:24:50;99904.91;;;6.18
78859;BMP280;68210;52.032;4.634;2024-02-26T05:26:51;99906.19;;;6.08
78859;BMP280;68210;52.032;4.634;2024-02-26T05:28:52;99924.66;;;6.10
78859;BMP280;68210;52.032;4.634;2024-02-26T05:30:52;99913.34;;;6.05
78859;BMP280;68210;52.032;4.634;2024-02-26T05:32:52;99918.94;;;6.11
78859;BMP280;68210;52.032;4.634;2024-02-26T05:34:53;99930.81;;;6.10
78859;BMP280;68210;52.032;4.634;2024-02-26T05:36:53;99928.13;;;6.10
78859;BMP280;68210;52.032;4.634;2024-02-26T05:38:53;99927.25;;;6.06
78859;BMP280;68210;52.032;4.634;2024-02-26T05:40:54;99936.88;;;6.07
78859;BMP280;68210;52.032;4.634;2024-02-26T05:42:55;99973.66;;;6.04
78859;BMP280;68210;52.032;4.634;2024-02-26T05:44:55;99953.00;;;6.07
78859;BMP280;68210;52.032;4.634;2024-02-26T05:46:56;99941.56;;;6.10
78859;BMP280;68210;52.032;4.634;2024-02-26T05:48:56;99944.72;;;6.12
78859;BMP280;68210;52.032;4.634;2024-02-26T05:50:56;99946.63;;;6.12
78859;BMP280;68210;52.032;4.634;2024-02-26T05:52:57;99959.53;;;6.06
78859;BMP280;68210;52.032;4.634;2024-02-26T05:54:57;99964.56;;;6.08
78859;BMP280;68210;52.032;4.634;2024-02-26T05:56:57;99974.22;;;6.09
78859;BMP280;68210;52.032;4.634;2024-02-26T05:58:58;99957.28;;;6.08
78859;BMP280;68210;52.032;4.634;2024-02-26T06:00:58;99955.59;;;6.04
78859;BMP280;68210;52.032;4.634;2024-02-26T06:03:00;99970.97;;;5.92
78859;BMP280;68210;52.032;4.634;2024-02-26T06:05:00;99974.22;;;5.97
78859;BMP280;68210;52.032;4.634;2024-02-26T06:07:00;99996.28;;;6.03
78859;BMP280;68210;52.032;4.634;2024-02-26T06:09:01;99976.03;;;5.93
78859;BMP280;68210;52.032;4.634;2024-02-26T06:11:05;99980.81;;;6.00
78859;BMP280;68210;52.032;4.634;2024-02-26T06:13:07;99986.56;;;5.98
78859;BMP280;68210;52.032;4.634;2024-02-26T06:15:07;99984.09;;;5.93
78859;BMP280;68210;52.032;4.634;2024-02-26T06:17:08;99981.06;;;5.95
78859;BMP280;68210;52.032;4.634;2024-02-26T06:19:08;99990.25;;;5.94
78859;BMP280;68210;52.032;4.634;2024-02-26T06:21:11;100021.63;;;6.02
78859;BMP280;68210;52.032;4.634;2024-02-26T06:23:11;99992.72;;;5.99
78859;BMP280;68210;52.032;4.634;2024-02-26T06:25:12;100005.72;;;5.97
78859;BMP280;68210;52.032;4.634;2024-02-26T06:27:12;100021.19;;;6.00
78859;BMP280;68210;52.032;4.634;2024-02-26T06:29:12;99986.66;;;6.02
78859;BMP280;68210;52.032;4.634;2024-02-26T06:31:13;100003.13;;;6.00
78859;BMP280;68210;52.032;4.634;2024-02-26T06:33:13;100012.69;;;5.98
78859;BMP280;68210;52.032;4.634;2024-02-26T06:35:14;100021.94;;;6.00
78859;BMP280;68210;52.032;4.634;2024-02-26T06:37:14;100024.53;;;5.97
78859;BMP280;68210;52.032;4.634;2024-02-26T06:39:15;100025.69;;;5.96
78859;BMP280;68210;52.032;4.634;2024-02-26T06:41:16;100023.53;;;6.01
78859;BMP280;68210;52.032;4.634;2024-02-26T06:43:16;100020.41;;;5.99
78859;BMP280;68210;52.032;4.634;2024-02-26T06:45:17;100029.69;;;6.02
78859;BMP280;68210;52.032;4.634;2024-02-26T06:47:18;100043.94;;;6.02
78859;BMP280;68210;52.032;4.634;2024-02-26T06:49:19;100035.06;;;6.02
78859;BMP280;68210;52.032;4.634;2024-02-26T06:51:20;100026.91;;;5.98
78859;BMP280;68210;52.032;4.634;2024-02-26T06:53:20;100031.25;;;6.03
78859;BMP280;68210;52.032;4.634;2024-02-26T06:55:20;100037.09;;;6.05
78859;BMP280;68210;52.032;4.634;2024-02-26T06:57:21;100047.84;;;6.05
78859;BMP280;68210;52.032;4.634;2024-02-26T06:59:21;100046.28;;;6.04
78859;BMP280;68210;52.032;4.634;2024-02-26T07:01:22;100054.38;;;6.04
78859;BMP280;68210;52.032;4.634;2024-02-26T07:03:22;100046.94;;;6.12
78859;BMP280;68210;52.032;4.634;2024-02-26T07:05:24;100063.00;;;6.09
78859;BMP280;68210;52.032;4.634;2024-02-26T07:07:25;100052.91;;;6.06
78859;BMP280;68210;52.032;4.634;2024-02-26T07:09:25;100078.91;;;6.02
78859;BMP280;68210;52.032;4.634;2024-02-26T07:11:25;100068.91;;;6.03
78859;BMP280;68210;52.032;4.634;2024-02-26T07:13:26;100077.25;;;5.98
78859;BMP280;68210;52.032;4.634;2024-02-26T07:15:27;100075.66;;;5.97
78859;BMP280;68210;52.032;4.634;2024-02-26T07:17:28;100074.97;;;6.00
78859;BMP280;68210;52.032;4.634;2024-02-26T07:19:28;100083.59;;;6.05
78859;BMP280;68210;52.032;4.634;2024-02-26T07:21:28;100097.06;;;5.93
78859;BMP280;68210;52.032;4.634;2024-02-26T07:23:29;100088.44;;;5.88
78859;BMP280;68210;52.032;4.634;2024-02-26T07:25:29;100086.88;;;5.87
78859;BMP280;68210;52.032;4.634;2024-02-26T07:27:30;100088.22;;;5.93
78859;BMP280;68210;52.032;4.634;2024-02-26T07:29:30;100091.59;;;5.90
78859;BMP280;68210;52.032;4.634;2024-02-26T07:31:30;100098.97;;;5.93
78859;BMP280;68210;52.032;4.634;2024-02-26T07:33:31;100100.53;;;5.94
78859;BMP280;68210;52.032;4.634;2024-02-26T07:35:31;100097.38;;;5.92
78859;BMP280;68210;52.032;4.634;2024-02-26T07:37:33;100101.41;;;5.86
78859;BMP280;68210;52.032;4.634;2024-02-26T07:39:34;100109.72;;;5.93
78859;BMP280;68210;52.032;4.634;2024-02-26T07:41:35;100112.53;;;5.96
78859;BMP280;68210;52.032;4.634;2024-02-26T07:43:35;100110.63;;;5.85
78859;BMP280;68210;52.032;4.634;2024-02-26T07:45:36;100131.94;;;5.90
78859;BMP280;68210;52.032;4.634;2024-02-26T07:47:36;100128.31;;;5.86
78859;BMP280;68210;52.032;4.634;2024-02-26T07:49:40;100121.72;;;5.95
78859;BMP280;68210;52.032;4.634;2024-02-26T07:51:41;100128.22;;;5.94
78859;BMP280;68210;52.032;4.634;2024-02-26T07:53:42;100135.03;;;5.92
78859;BMP280;68210;52.032;4.634;2024-02-26T07:55:42;100128.44;;;5.89
78859;BMP280;68210;52.032;4.634;2024-02-26T07:57:42;100138.19;;;5.82
78859;BMP280;68210;52.032;4.634;2024-02-26T07:59:46;100132.03;;;5.81
78859;BMP280;68210;52.032;4.634;2024-02-26T08:01:50;100157.44;;;5.84
78859;BMP280;68210;52.032;4.634;2024-02-26T08:03:51;100138.19;;;5.82
78859;BMP280;68210;52.032;4.634;2024-02-26T08:05:52;100146.47;;;5.77
78859;BMP280;68210;52.032;4.634;2024-02-26T08:07:52;100150.97;;;5.85
78859;BMP280;68210;52.032;4.634;2024-02-26T08:09:53;100153.66;;;5.85
78859;BMP280;68210;52.032;4.634;2024-02-26T08:11:53;100150.28;;;5.88
78859;BMP280;68210;52.032;4.634;2024-02-26T08:13:53;100166.63;;;5.83
78859;BMP280;68210;52.032;4.634;2024-02-26T08:15:54;100154.53;;;5.89
78859;BMP280;68210;52.032;4.634;2024-02-26T08:17:55;100180.09;;;5.83
78859;BMP280;68210;52.032;4.634;2024-02-26T08:19:55;100154.13;;;5.87
78859;BMP280;68210;52.032;4.634;2024-02-26T08:21:57;100169.78;;;5.85
78859;BMP280;68210;52.032;4.634;2024-02-26T08:23:57;100172.03;;;5.83
78859;BMP280;68210;52.032;4.634;2024-02-26T08:25:57;100184.34;;;5.84
78859;BMP280;68210;52.032;4.634;2024-02-26T08:27:58;100167.31;;;5.80
78859;BMP280;68210;52.032;4.634;2024-02-26T08:30:01;100181.22;;;5.82
78859;BMP280;68210;52.032;4.634;2024-02-26T08:32:02;100207.44;;;5.85
78859;BMP280;68210;52.032;4.634;2024-02-26T08:34:02;100187.91;;;5.76
78859;BMP280;68210;52.032;4.634;2024-02-26T08:36:06;100176.25;;;5.72
78859;BMP280;68210;52.032;4.634;2024-02-26T08:38:07;100188.81;;;5.80
78859;BMP280;68210;52.032;4.634;2024-02-26T08:40:07;100200.25;;;5.77
78859;BMP280;68210;52.032;4.634;2024-02-26T08:42:07;100185.81;;;5.81
78859;BMP280;68210;52.032;4.634;2024-02-26T08:44:08;100205.84;;;5.84
78859;BMP280;68210;52.032;4.634;2024-02-26T08:46:09;100207.34;;;5.81
78859;BMP280;68210;52.032;4.634;2024-02-26T08:48:10;100208.78;;;5.91
78859;BMP280;68210;52.032;4.634;2024-02-26T08:50:10;100249.69;;;5.84
78859;BMP280;68210;52.032;4.634;2024-02-26T08:52:12;100210.59;;;5.87
78859;BMP280;68210;52.032;4.634;2024-02-26T08:54:12;100213.28;;;5.87
78859;BMP280;68210;52.032;4.634;2024-02-26T08:56:13;100225.13;;;5.86
78859;BMP280;68210;52.032;4.634;2024-02-26T08:58:16;100235.22;;;5.89
78859;BMP280;68210;52.032;4.634;2024-02-26T09:00:17;100224.09;;;5.78
78859;BMP280;68210;52.032;4.634;2024-02-26T09:02:20;100226.72;;;5.87
78859;BMP280;68210;52.032;4.634;2024-02-26T09:04:20;100255.97;;;5.88
78859;BMP280;68210;52.032;4.634;2024-02-26T09:06:20;100230.63;;;5.89
78859;BMP280;68210;52.032;4.634;2024-02-26T09:08:21;100222.00;;;5.84
78859;BMP280;68210;52.032;4.634;2024-02-26T09:10:22;100229.66;;;5.94
78859;BMP280;68210;52.032;4.634;2024-02-26T09:12:22;100243.78;;;6.03
78859;BMP280;68210;52.032;4.634;2024-02-26T09:14:23;100241.66;;;5.96
78859;BMP280;68210;52.032;4.634;2024-02-26T09:16:23;100264.63;;;5.94
78859;BMP280;68210;52.032;4.634;2024-02-26T09:18:23;100240.97;;;5.99
78859;BMP280;68210;52.032;4.634;2024-02-26T09:20:24;100265.44;;;6.06
78859;BMP280;68210;52.032;4.634;2024-02-26T09:22:24;100245.47;;;5.95
78859;BMP280;68210;52.032;4.634;2024-02-26T09:24:25;100278.31;;;6.01
78859;BMP280;68210;52.032;4.634;2024-02-26T09:26:26;100250.03;;;5.95
78859;BMP280;68210;52.032;4.634;2024-02-26T09:28:26;100264.72;;;5.97
78859;BMP280;68210;52.032;4.634;2024-02-26T09:30:27;100264.88;;;6.01
78859;BMP280;68210;52.032;4.634;2024-02-26T09:32:27;100258.38;;;6.02
78859;BMP280;68210;52.032;4.634;2024-02-26T09:34:27;100275.75;;;6.04
78859;BMP280;68210;52.032;4.634;2024-02-26T09:36:28;100283.63;;;6.09
78859;BMP280;68210;52.032;4.634;2024-02-26T09:38:28;100284.13;;;6.03
78859;BMP280;68210;52.032;4.634;2024-02-26T09:40:30;100277.44;;;6.08
78859;BMP280;68210;52.032;4.634;2024-02-26T09:42:31;100304.34;;;6.08
78859;BMP280;68210;52.032;4.634;2024-02-26T09:44:34;100293.81;;;6.15
78859;BMP280;68210;52.032;4.634;2024-02-26T09:46:39;100316.94;;;6.16
78859;BMP280;68210;52.032;4.634;2024-02-26T09:48:40;100302.91;;;6.11
78859;BMP280;68210;52.032;4.634;2024-02-26T09:50:42;100312.19;;;6.13
78859;BMP280;68210;52.032;4.634;2024-02-26T09:52:43;100299.19;;;6.15
78859;BMP280;68210;52.032;4.634;2024-02-26T09:54:47;100308.63;;;6.21
78859;BMP280;68210;52.032;4.634;2024-02-26T09:56:48;100309.09;;;6.23
78859;BMP280;68210;52.032;4.634;2024-02-26T09:58:50;100331.56;;;6.27
78859;BMP280;68210;52.032;4.634;2024-02-26T10:00:56;100350.25;;;6.24
78859;BMP280;68210;52.032;4.634;2024-02-26T10:03:02;100330.75;;;6.27
78859;BMP280;68210;52.032;4.634;2024-02-26T10:05:04;100324.94;;;6.36
78859;BMP280;68210;52.032;4.634;2024-02-26T10:07:10;100327.53;;;6.33
78859;BMP280;68210;52.032;4.634;2024-02-26T10:09:11;100325.50;;;6.30
78859;BMP280;68210;52.032;4.634;2024-02-26T10:11:13;100360.03;;;6.28
78859;BMP280;68210;52.032;4.634;2024-02-26T10:13:13;100346.84;;;6.15
78859;BMP280;68210;52.032;4.634;2024-02-26T10:15:14;100349.47;;;6.23
78859;BMP280;68210;52.032;4.634;2024-02-26T10:17:15;100339.63;;;6.27
78859;BMP280;68210;52.032;4.634;2024-02-26T10:19:28;100354.06;;;6.23
78859;BMP280;68210;52.032;4.634;2024-02-26T10:21:29;100327.25;;;6.26
78859;BMP280;68210;52.032;4.634;2024-02-26T10:23:29;100344.66;;;6.29
78859;BMP280;68210;52.032;4.634;2024-02-26T10:25:30;100359.66;;;6.18
78859;BMP280;68210;52.032;4.634;2024-02-26T10:27:31;100355.72;;;6.15
78859;BMP280;68210;52.032;4.634;2024-02-26T10:29:32;100379.28;;;6.18
78859;BMP280;68210;52.032;4.634;2024-02-26T10:31:32;100357.06;;;6.21
78859;BMP280;68210;52.032;4.634;2024-02-26T10:33:34;100371.00;;;6.23
78859;BMP280;68210;52.032;4.634;2024-02-26T10:35:37;100361.69;;;6.21
78859;BMP280;68210;52.032;4.634;2024-02-26T10:37:40;100359.66;;;6.18
78859;BMP280;68210;52.032;4.634;2024-02-26T10:39:46;100365.63;;;6.23
78859;BMP280;68210;52.032;4.634;2024-02-26T10:41:47;100368.00;;;6.25
78859;BMP280;68210;52.032;4.634;2024-02-26T10:43:47;100375.97;;;6.33
78859;BMP280;68210;52.032;4.634;2024-02-26T10:45:48;100361.75;;;6.44
78859;BMP280;68210;52.032;4.634;2024-02-26T10:47:48;100369.00;;;6.32
78859;BMP280;68210;52.032;4.634;2024-02-26T10:49:50;100380.69;;;6.36
78859;BMP280;68210;52.032;4.634;2024-02-26T10:51:55;100376.44;;;6.35
78859;BMP280;68210;52.032;4.634;2024-02-26T10:53:59;100382.25;;;6.37
78859;BMP280;68210;52.032;4.634;2024-02-26T10:56:05;100384.63;;;6.38
78859;BMP280;68210;52.032;4.634;2024-02-26T10:58:08;100399.47;;;6.24
78859;BMP280;68210;52.032;4.634;2024-02-26T11:00:10;100395.47;;;6.30
78859;BMP280;68210;52.032;4.634;2024-02-26T11:02:13;100399.75;;;6.31
78859;BMP280;68210;52.032;4.634;2024-02-26T11:04:15;100405.13;;;6.31
78859;BMP280;68210;52.032;4.634;2024-02-26T11:06:17;100407.16;;;6.34
78859;BMP280;68210;52.032;4.634;2024-02-26T11:08:21;100414.91;;;6.36
78859;BMP280;68210;52.032;4.634;2024-02-26T11:10:24;100414.16;;;6.27
78859;BMP280;68210;52.032;4.634;2024-02-26T11:12:30;100420.50;;;6.31
78859;BMP280;68210;52.032;4.634;2024-02-26T11:14:31;100422.50;;;6.34
78859;BMP280;68210;52.032;4.634;2024-02-26T11:16:34;100421.81;;;6.25
78859;BMP280;68210;52.032;4.634;2024-02-26T11:18:36;100423.69;;;6.24
78859;BMP280;68210;52.032;4.634;2024-02-26T11:20:38;100431.53;;;6.17
78859;BMP280;68210;52.032;4.634;2024-02-26T11:22:40;100434.22;;;6.17
78859;BMP280;68210;52.032;4.634;2024-02-26T11:24:40;100433.09;;;6.18
78859;BMP280;68210;52.032;4.634;2024-02-26T11:26:53;100436.91;;;6.17
78859;BMP280;68210;52.032;4.634;2024-02-26T11:28:58;100445.09;;;6.21
78859;BMP280;68210;52.032;4.634;2024-02-26T11:31:00;100445.44;;;6.19
78859;BMP280;68210;52.032;4.634;2024-02-26T11:33:01;100440.72;;;6.16
78859;BMP280;68210;52.032;4.634;2024-02-26T11:35:01;100435.06;;;6.09
78859;BMP280;68210;52.032;4.634;2024-02-26T11:37:14;100458.63;;;6.12
78859;BMP280;68210;52.032;4.634;2024-02-26T11:39:15;100436.56;;;6.19
78859;BMP280;68210;52.032;4.634;2024-02-26T11:41:17;100444.00;;;6.22
78859;BMP280;68210;52.032;4.634;2024-02-26T11:43:18;100447.91;;;6.24